sensor_id;sensor_type;location;lat;lon;timestamp;temperature;humidity
4828;DHT22;2428;48.732;9.148;2023-07-31T00:00:34;16.00;99.90
4828;DHT22;2428;48.732;9.148;2023-07-31T00:03:00;16.00;99.90
4828;DHT22;2428;48.732;9.148;2023-07-31T00:05:25;16.00;99.90
4828;DHT22;2428;48.732;9.148;2023-07-31T00:07:51;16.00;99.90
4828;DHT22;2428;48.732;9.148;2023-07-31T00:10:16;15.90;99.90
4828;DHT22;2428;48.732;9.148;2023-07-31T00:12:44;15.90;99.90
4828;DHT22;2428;48.732;9.148;2023-07-31T00:15:10;16.00;99.90
4828;DHT22;2428;48.732;9.148;2023-07-31T00:17:37;15.90;99.90
4828;DHT22;2428;48.732;9.148;2023-07-31T00:20:03;15.90;99.90
4828;DHT22;2428;48.732;9.148;2023-07-31T00:22:28;15.90;99.90
4828;DHT22;2428;48.732;9.148;2023-07-31T00:24:55;15.90;99.90
4828;DHT22;2428;48.732;9.148;2023-07-31T00:27:21;15.90;99.90
4828;DHT22;2428;48.732;9.148;2023-07-31T00:29:47;15.80;99.90
4828;DHT22;2428;48.732;9.148;2023-07-31T00:32:12;15.80;99.90
4828;DHT22;2428;48.732;9.148;2023-07-31T00:34:38;15.70;99.90
4828;DHT22;2428;48.732;9.148;2023-07-31T00:37:03;15.70;99.90
4828;DHT22;2428;48.732;9.148;2023-07-31T00:39:30;15.70;99.90
4828;DHT22;2428;48.732;9.148;2023-07-31T00:41:56;15.70;99.90
4828;DHT22;2428;48.732;9.148;2023-07-31T00:44:22;15.70;99.90
4828;DHT22;2428;48.732;9.148;2023-07-31T00:46:47;15.70;99.90
4828;DHT22;2428;48.732;9.148;2023-07-31T00:49:13;15.70;99.90
4828;DHT22;2428;48.732;9.148;2023-07-31T00:51:39;15.70;99.90
4828;DHT22;2428;48.732;9.148;2023-07-31T00:54:06;15.70;99.90
4828;DHT22;2428;48.732;9.148;2023-07-31T00:56:32;15.60;99.90
4828;DHT22;2428;48.732;9.148;2023-07-31T00:58:58;15.50;99.90
4828;DHT22;2428;48.732;9.148;2023-07-31T01:01:23;15.50;99.90
4828;DHT22;2428;48.732;9.148;2023-07-31T01:03:50;15.50;99.90
4828;DHT22;2428;48.732;9.148;2023-07-31T01:06:39;15.50;99.90
4828;DHT22;2428;48.732;9.148;2023-07-31T01:09:29;15.50;99.90
4828;DHT22;2428;48.732;9.148;2023-07-31T01:12:07;15.50;99.90
4828;DHT22;2428;48.732;9.148;2023-07-31T01:14:34;15.40;99.90
4828;DHT22;2428;48.732;9.148;2023-07-31T01:17:00;15.40;99.90
4828;DHT22;2428;48.732;9.148;2023-07-31T01:19:26;15.40;99.90
4828;DHT22;2428;48.732;9.148;2023-07-31T01:25:16;15.30;99.90
4828;DHT22;2428;48.732;9.148;2023-07-31T01:27:58;15.30;99.90
4828;DHT22;2428;48.732;9.148;2023-07-31T01:30:27;15.30;99.90
4828;DHT22;2428;48.732;9.148;2023-07-31T01:32:55;15.30;99.90
4828;DHT22;2428;48.732;9.148;2023-07-31T01:35:22;15.30;99.90
4828;DHT22;2428;48.732;9.148;2023-07-31T01:37:47;15.30;99.90
4828;DHT22;2428;48.732;9.148;2023-07-31T01:40:13;15.30;99.90
4828;DHT22;2428;48.732;9.148;2023-07-31T01:42:38;15.30;99.90
4828;DHT22;2428;48.732;9.148;2023-07-31T01:45:04;15.30;99.90
4828;DHT22;2428;48.732;9.148;2023-07-31T01:47:30;15.30;99.90
4828;DHT22;2428;48.732;9.148;2023-07-31T01:49:55;15.20;99.90
4828;DHT22;2428;48.732;9.148;2023-07-31T01:52:21;15.30;99.90
4828;DHT22;2428;48.732;9.148;2023-07-31T01:54:47;15.30;99.90
4828;DHT22;2428;48.732;9.148;2023-07-31T01:57:12;15.30;99.90
4828;DHT22;2428;48.732;9.148;2023-07-31T01:59:38;15.30;99.90
4828;DHT22;2428;48.732;9.148;2023-07-31T02:02:03;15.40;99.90
4828;DHT22;2428;48.732;9.148;2023-07-31T02:04:29;15.40;99.90
4828;DHT22;2428;48.732;9.148;2023-07-31T02:06:54;15.40;99.90
4828;DHT22;2428;48.732;9.148;2023-07-31T02:09:20;15.40;99.90
4828;DHT22;2428;48.732;9.148;2023-07-31T02:11:46;15.40;99.90
4828;DHT22;2428;48.732;9.148;2023-07-31T02:14:11;15.40;99.90
4828;DHT22;2428;48.732;9.148;2023-07-31T02:16:37;15.40;99.90
4828;DHT22;2428;48.732;9.148;2023-07-31T02:19:02;15.40;99.90
4828;DHT22;2428;48.732;9.148;2023-07-31T02:21:28;15.40;99.90
4828;DHT22;2428;48.732;9.148;2023-07-31T02:23:53;15.40;99.90
4828;DHT22;2428;48.732;9.148;2023-07-31T02:26:19;15.40;99.90
4828;DHT22;2428;48.732;9.148;2023-07-31T02:28:44;15.40;99.90
4828;DHT22;2428;48.732;9.148;2023-07-31T02:31:10;15.30;99.90
4828;DHT22;2428;48.732;9.148;2023-07-31T02:33:35;15.30;99.90
4828;DHT22;2428;48.732;9.148;2023-07-31T02:36:01;15.30;99.90
4828;DHT22;2428;48.732;9.148;2023-07-31T02:38:26;15.20;99.90
4828;DHT22;2428;48.732;9.148;2023-07-31T02:40:52;15.20;99.90
4828;DHT22;2428;48.732;9.148;2023-07-31T02:43:18;15.20;99.90
4828;DHT22;2428;48.732;9.148;2023-07-31T02:45:43;15.20;99.90
4828;DHT22;2428;48.732;9.148;2023-07-31T02:48:09;15.20;99.90
4828;DHT22;2428;48.732;9.148;2023-07-31T02:50:35;15.10;99.90
4828;DHT22;2428;48.732;9.148;2023-07-31T02:53:00;15.10;99.90
4828;DHT22;2428;48.732;9.148;2023-07-31T02:55:26;15.10;99.90
4828;DHT22;2428;48.732;9.148;2023-07-31T02:57:51;15.10;99.90
4828;DHT22;2428;48.732;9.148;2023-07-31T03:00:18;15.00;99.90
4828;DHT22;2428;48.732;9.148;2023-07-31T03:02:43;15.00;99.90
4828;DHT22;2428;48.732;9.148;2023-07-31T03:05:09;15.00;99.90
4828;DHT22;2428;48.732;9.148;2023-07-31T03:07:34;14.90;99.90
4828;DHT22;2428;48.732;9.148;2023-07-31T03:10:00;14.90;99.90
4828;DHT22;2428;48.732;9.148;2023-07-31T03:12:27;14.90;99.90
4828;DHT22;2428;48.732;9.148;2023-07-31T03:14:52;14.90;99.90
4828;DHT22;2428;48.732;9.148;2023-07-31T03:17:18;14.90;99.90
4828;DHT22;2428;48.732;9.148;2023-07-31T03:19:44;14.90;99.90
4828;DHT22;2428;48.732;9.148;2023-07-31T03:22:09;14.90;99.90
4828;DHT22;2428;48.732;9.148;2023-07-31T03:24:35;14.90;99.90
4828;DHT22;2428;48.732;9.148;2023-07-31T03:27:00;14.90;99.90
4828;DHT22;2428;48.732;9.148;2023-07-31T03:29:26;14.80;99.90
4828;DHT22;2428;48.732;9.148;2023-07-31T03:31:51;14.90;99.90
4828;DHT22;2428;48.732;9.148;2023-07-31T03:34:17;14.80;99.90
4828;DHT22;2428;48.732;9.148;2023-07-31T03:36:42;14.80;99.90
4828;DHT22;2428;48.732;9.148;2023-07-31T03:39:08;14.80;99.90
4828;DHT22;2428;48.732;9.148;2023-07-31T03:41:34;14.80;99.90
4828;DHT22;2428;48.732;9.148;2023-07-31T03:43:59;14.80;99.90
4828;DHT22;2428;48.732;9.148;2023-07-31T03:46:25;14.80;99.90
4828;DHT22;2428;48.732;9.148;2023-07-31T03:48:51;14.80;99.90
4828;DHT22;2428;48.732;9.148;2023-07-31T03:51:16;14.80;99.90
4828;DHT22;2428;48.732;9.148;2023-07-31T03:53:43;14.80;99.90
4828;DHT22;2428;48.732;9.148;2023-07-31T03:56:09;14.80;99.90
4828;DHT22;2428;48.732;9.148;2023-07-31T03:58:35;14.90;99.90
4828;DHT22;2428;48.732;9.148;2023-07-31T04:01:02;15.00;99.90
4828;DHT22;2428;48.732;9.148;2023-07-31T04:03:27;15.00;99.90
4828;DHT22;2428;48.732;9.148;2023-07-31T04:05:54;15.00;99.90
4828;DHT22;2428;48.732;9.148;2023-07-31T04:08:21;15.00;99.90
4828;DHT22;2428;48.732;9.148;2023-07-31T04:10:47;15.10;99.90
4828;DHT22;2428;48.732;9.148;2023-07-31T04:13:13;15.10;99.90
4828;DHT22;2428;48.732;9.148;2023-07-31T04:15:38;15.10;99.90
4828;DHT22;2428;48.732;9.148;2023-07-31T04:18:04;15.10;99.90
4828;DHT22;2428;48.732;9.148;2023-07-31T04:20:30;15.20;99.90
4828;DHT22;2428;48.732;9.148;2023-07-31T04:22:56;15.30;99.90
4828;DHT22;2428;48.732;9.148;2023-07-31T04:25:21;15.30;99.90
4828;DHT22;2428;48.732;9.148;2023-07-31T04:27:47;15.30;99.90
4828;DHT22;2428;48.732;9.148;2023-07-31T04:30:13;15.40;99.90
4828;DHT22;2428;48.732;9.148;2023-07-31T04:32:38;15.40;99.90
4828;DHT22;2428;48.732;9.148;2023-07-31T04:35:04;15.40;99.90
4828;DHT22;2428;48.732;9.148;2023-07-31T04:37:30;15.50;99.90
4828;DHT22;2428;48.732;9.148;2023-07-31T04:39:56;15.50;99.90
4828;DHT22;2428;48.732;9.148;2023-07-31T04:42:21;15.60;99.90
4828;DHT22;2428;48.732;9.148;2023-07-31T04:44:47;15.60;99.90
4828;DHT22;2428;48.732;9.148;2023-07-31T04:47:12;15.70;99.90
4828;DHT22;2428;48.732;9.148;2023-07-31T04:49:38;15.70;99.90
4828;DHT22;2428;48.732;9.148;2023-07-31T04:52:04;15.70;99.90
4828;DHT22;2428;48.732;9.148;2023-07-31T04:54:29;15.70;99.90
4828;DHT22;2428;48.732;9.148;2023-07-31T04:56:55;15.80;99.90
4828;DHT22;2428;48.732;9.148;2023-07-31T04:59:21;15.80;99.90
4828;DHT22;2428;48.732;9.148;2023-07-31T05:01:46;15.90;99.90
4828;DHT22;2428;48.732;9.148;2023-07-31T05:04:15;15.90;99.90
4828;DHT22;2428;48.732;9.148;2023-07-31T05:06:41;15.90;99.90
4828;DHT22;2428;48.732;9.148;2023-07-31T05:09:07;15.90;99.90
4828;DHT22;2428;48.732;9.148;2023-07-31T05:11:32;15.90;99.90
4828;DHT22;2428;48.732;9.148;2023-07-31T05:13:58;15.90;99.90
4828;DHT22;2428;48.732;9.148;2023-07-31T05:16:23;15.90;99.90
4828;DHT22;2428;48.732;9.148;2023-07-31T05:18:49;15.90;99.90
4828;DHT22;2428;48.732;9.148;2023-07-31T05:21:14;15.90;99.90
4828;DHT22;2428;48.732;9.148;2023-07-31T05:23:40;15.90;99.90
4828;DHT22;2428;48.732;9.148;2023-07-31T05:26:07;15.90;99.90
4828;DHT22;2428;48.732;9.148;2023-07-31T05:28:34;15.90;99.90
4828;DHT22;2428;48.732;9.148;2023-07-31T05:31:01;15.90;99.90
4828;DHT22;2428;48.732;9.148;2023-07-31T05:33:27;15.90;99.90
4828;DHT22;2428;48.732;9.148;2023-07-31T05:35:52;15.90;99.90
4828;DHT22;2428;48.732;9.148;2023-07-31T05:38:18;15.90;99.90
4828;DHT22;2428;48.732;9.148;2023-07-31T05:40:43;15.90;99.90
4828;DHT22;2428;48.732;9.148;2023-07-31T05:43:09;15.90;99.90
4828;DHT22;2428;48.732;9.148;2023-07-31T05:45:35;15.90;99.90
4828;DHT22;2428;48.732;9.148;2023-07-31T05:48:01;15.90;99.90
4828;DHT22;2428;48.732;9.148;2023-07-31T05:50:26;16.00;99.90
4828;DHT22;2428;48.732;9.148;2023-07-31T05:52:52;16.00;99.90
4828;DHT22;2428;48.732;9.148;2023-07-31T05:55:17;16.20;99.90
4828;DHT22;2428;48.732;9.148;2023-07-31T05:57:43;16.20;99.90
4828;DHT22;2428;48.732;9.148;2023-07-31T06:00:11;16.20;99.90
4828;DHT22;2428;48.732;9.148;2023-07-31T06:02:37;16.30;99.90
4828;DHT22;2428;48.732;9.148;2023-07-31T06:05:04;16.30;99.90
4828;DHT22;2428;48.732;9.148;2023-07-31T06:07:31;16.40;99.90
4828;DHT22;2428;48.732;9.148;2023-07-31T06:09:57;16.50;99.90
4828;DHT22;2428;48.732;9.148;2023-07-31T06:12:27;16.50;99.90
4828;DHT22;2428;48.732;9.148;2023-07-31T06:14:53;16.50;99.90
4828;DHT22;2428;48.732;9.148;2023-07-31T06:17:18;16.70;99.90
4828;DHT22;2428;48.732;9.148;2023-07-31T06:19:44;16.70;99.90
4828;DHT22;2428;48.732;9.148;2023-07-31T06:22:09;16.70;99.90
4828;DHT22;2428;48.732;9.148;2023-07-31T06:24:35;16.70;99.90
4828;DHT22;2428;48.732;9.148;2023-07-31T06:27:00;16.80;99.90
4828;DHT22;2428;48.732;9.148;2023-07-31T06:29:28;16.80;99.90
4828;DHT22;2428;48.732;9.148;2023-07-31T06:31:53;16.80;99.90
4828;DHT22;2428;48.732;9.148;2023-07-31T06:34:19;16.90;99.90
4828;DHT22;2428;48.732;9.148;2023-07-31T06:36:44;17.00;99.90
4828;DHT22;2428;48.732;9.148;2023-07-31T06:39:10;17.00;99.90
4828;DHT22;2428;48.732;9.148;2023-07-31T06:41:36;17.00;99.90
4828;DHT22;2428;48.732;9.148;2023-07-31T06:44:01;17.00;99.90
4828;DHT22;2428;48.732;9.148;2023-07-31T06:46:27;17.00;99.90
4828;DHT22;2428;48.732;9.148;2023-07-31T06:48:53;17.00;99.90
4828;DHT22;2428;48.732;9.148;2023-07-31T06:51:18;17.10;99.90
4828;DHT22;2428;48.732;9.148;2023-07-31T06:53:44;17.10;99.90
4828;DHT22;2428;48.732;9.148;2023-07-31T06:56:10;17.20;99.90
4828;DHT22;2428;48.732;9.148;2023-07-31T06:58:36;17.30;99.90
4828;DHT22;2428;48.732;9.148;2023-07-31T07:01:01;17.30;99.90
4828;DHT22;2428;48.732;9.148;2023-07-31T07:03:27;17.30;99.90
4828;DHT22;2428;48.732;9.148;2023-07-31T07:05:53;17.40;99.90
4828;DHT22;2428;48.732;9.148;2023-07-31T07:08:18;17.40;99.90
4828;DHT22;2428;48.732;9.148;2023-07-31T07:10:44;17.30;99.90
4828;DHT22;2428;48.732;9.148;2023-07-31T07:13:09;17.40;99.90
4828;DHT22;2428;48.732;9.148;2023-07-31T07:15:35;17.60;99.90
4828;DHT22;2428;48.732;9.148;2023-07-31T07:18:01;17.60;99.90
4828;DHT22;2428;48.732;9.148;2023-07-31T07:20:26;17.70;99.90
4828;DHT22;2428;48.732;9.148;2023-07-31T07:22:52;17.80;99.90
4828;DHT22;2428;48.732;9.148;2023-07-31T07:25:17;17.90;99.90
4828;DHT22;2428;48.732;9.148;2023-07-31T07:27:43;18.00;99.90
4828;DHT22;2428;48.732;9.148;2023-07-31T07:30:09;18.10;99.90
4828;DHT22;2428;48.732;9.148;2023-07-31T07:32:34;18.10;99.90
4828;DHT22;2428;48.732;9.148;2023-07-31T07:35:00;18.10;99.90
4828;DHT22;2428;48.732;9.148;2023-07-31T07:37:26;18.10;99.90
4828;DHT22;2428;48.732;9.148;2023-07-31T07:39:51;18.10;99.90
4828;DHT22;2428;48.732;9.148;2023-07-31T07:42:17;17.90;99.90
4828;DHT22;2428;48.732;9.148;2023-07-31T07:44:43;17.90;99.90
4828;DHT22;2428;48.732;9.148;2023-07-31T07:47:08;17.90;99.90
4828;DHT22;2428;48.732;9.148;2023-07-31T07:49:35;18.00;99.90
4828;DHT22;2428;48.732;9.148;2023-07-31T07:52:01;17.90;99.90
4828;DHT22;2428;48.732;9.148;2023-07-31T07:54:26;17.90;99.90
4828;DHT22;2428;48.732;9.148;2023-07-31T07:56:52;18.00;99.90
4828;DHT22;2428;48.732;9.148;2023-07-31T07:59:18;18.10;99.90
4828;DHT22;2428;48.732;9.148;2023-07-31T08:01:43;18.20;99.90
4828;DHT22;2428;48.732;9.148;2023-07-31T08:04:09;18.30;99.90
4828;DHT22;2428;48.732;9.148;2023-07-31T08:06:35;18.30;99.90
4828;DHT22;2428;48.732;9.148;2023-07-31T08:09:00;18.40;99.90
4828;DHT22;2428;48.732;9.148;2023-07-31T08:11:31;18.60;99.90
4828;DHT22;2428;48.732;9.148;2023-07-31T08:13:57;18.50;99.90
4828;DHT22;2428;48.732;9.148;2023-07-31T08:16:23;18.50;99.90
4828;DHT22;2428;48.732;9.148;2023-07-31T08:18:49;18.50;99.90
4828;DHT22;2428;48.732;9.148;2023-07-31T08:21:14;18.60;99.90
4828;DHT22;2428;48.732;9.148;2023-07-31T08:23:40;18.70;99.90
4828;DHT22;2428;48.732;9.148;2023-07-31T08:26:06;18.70;99.90
4828;DHT22;2428;48.732;9.148;2023-07-31T08:28:31;18.60;99.90
4828;DHT22;2428;48.732;9.148;2023-07-31T08:30:57;18.60;99.90
4828;DHT22;2428;48.732;9.148;2023-07-31T08:33:22;18.60;99.90
4828;DHT22;2428;48.732;9.148;2023-07-31T08:35:48;18.60;99.90
4828;DHT22;2428;48.732;9.148;2023-07-31T08:38:14;18.60;99.90
4828;DHT22;2428;48.732;9.148;2023-07-31T08:40:39;18.70;99.90
4828;DHT22;2428;48.732;9.148;2023-07-31T08:43:05;18.80;99.90
4828;DHT22;2428;48.732;9.148;2023-07-31T08:45:32;18.80;99.90
4828;DHT22;2428;48.732;9.148;2023-07-31T08:47:58;18.90;99.90
4828;DHT22;2428;48.732;9.148;2023-07-31T08:50:24;19.00;99.90
4828;DHT22;2428;48.732;9.148;2023-07-31T08:52:51;19.10;99.90
4828;DHT22;2428;48.732;9.148;2023-07-31T08:55:18;19.10;99.90
4828;DHT22;2428;48.732;9.148;2023-07-31T08:57:49;19.10;99.90
4828;DHT22;2428;48.732;9.148;2023-07-31T09:00:16;19.20;99.90
4828;DHT22;2428;48.732;9.148;2023-07-31T09:05:11;19.40;99.90
4828;DHT22;2428;48.732;9.148;2023-07-31T09:07:37;19.60;99.90
4828;DHT22;2428;48.732;9.148;2023-07-31T09:10:04;19.80;99.90
4828;DHT22;2428;48.732;9.148;2023-07-31T09:12:31;19.70;99.90
4828;DHT22;2428;48.732;9.148;2023-07-31T09:15:00;19.80;99.90
4828;DHT22;2428;48.732;9.148;2023-07-31T09:17:33;19.80;99.90
4828;DHT22;2428;48.732;9.148;2023-07-31T09:20:21;19.90;99.90
4828;DHT22;2428;48.732;9.148;2023-07-31T09:22:47;19.70;99.90
4828;DHT22;2428;48.732;9.148;2023-07-31T09:27:50;19.70;99.90
4828;DHT22;2428;48.732;9.148;2023-07-31T09:30:17;19.50;99.90
4828;DHT22;2428;48.732;9.148;2023-07-31T09:32:47;19.50;99.90
4828;DHT22;2428;48.732;9.148;2023-07-31T09:35:21;19.40;99.90
4828;DHT22;2428;48.732;9.148;2023-07-31T09:37:51;19.40;99.90
4828;DHT22;2428;48.732;9.148;2023-07-31T09:40:27;19.30;99.90
4828;DHT22;2428;48.732;9.148;2023-07-31T09:42:55;19.20;99.90
4828;DHT22;2428;48.732;9.148;2023-07-31T09:45:21;19.20;99.90
4828;DHT22;2428;48.732;9.148;2023-07-31T09:47:47;19.30;99.90
4828;DHT22;2428;48.732;9.148;2023-07-31T09:50:17;19.20;99.90
4828;DHT22;2428;48.732;9.148;2023-07-31T09:52:43;19.30;99.90
4828;DHT22;2428;48.732;9.148;2023-07-31T09:55:09;19.50;99.90
4828;DHT22;2428;48.732;9.148;2023-07-31T09:57:46;19.80;99.90
4828;DHT22;2428;48.732;9.148;2023-07-31T10:00:14;20.10;99.90
4828;DHT22;2428;48.732;9.148;2023-07-31T10:02:41;20.20;99.90
4828;DHT22;2428;48.732;9.148;2023-07-31T10:05:07;20.30;99.90
4828;DHT22;2428;48.732;9.148;2023-07-31T10:07:37;20.40;99.90
4828;DHT22;2428;48.732;9.148;2023-07-31T10:10:07;20.40;99.90
4828;DHT22;2428;48.732;9.148;2023-07-31T10:12:33;20.40;99.90
4828;DHT22;2428;48.732;9.148;2023-07-31T10:15:00;20.60;99.90
4828;DHT22;2428;48.732;9.148;2023-07-31T10:17:26;20.70;99.90
4828;DHT22;2428;48.732;9.148;2023-07-31T10:19:53;21.00;99.90
4828;DHT22;2428;48.732;9.148;2023-07-31T10:22:19;21.30;99.90
4828;DHT22;2428;48.732;9.148;2023-07-31T10:24:46;21.40;99.90
4828;DHT22;2428;48.732;9.148;2023-07-31T10:27:12;21.30;99.90
4828;DHT22;2428;48.732;9.148;2023-07-31T10:29:43;21.30;99.90
4828;DHT22;2428;48.732;9.148;2023-07-31T10:32:09;21.10;99.90
4828;DHT22;2428;48.732;9.148;2023-07-31T10:34:39;20.80;99.90
4828;DHT22;2428;48.732;9.148;2023-07-31T10:37:25;21.30;99.90
4828;DHT22;2428;48.732;9.148;2023-07-31T10:40:04;22.60;99.90
4828;DHT22;2428;48.732;9.148;2023-07-31T10:42:44;23.90;99.90
4828;DHT22;2428;48.732;9.148;2023-07-31T10:45:10;25.10;99.90
4828;DHT22;2428;48.732;9.148;2023-07-31T10:47:43;24.60;99.90
4828;DHT22;2428;48.732;9.148;2023-07-31T10:50:19;23.20;99.90
4828;DHT22;2428;48.732;9.148;2023-07-31T10:52:47;23.20;99.90
4828;DHT22;2428;48.732;9.148;2023-07-31T10:55:40;23.50;99.90
4828;DHT22;2428;48.732;9.148;2023-07-31T10:58:07;23.30;99.90
4828;DHT22;2428;48.732;9.148;2023-07-31T11:00:33;22.90;99.90
4828;DHT22;2428;48.732;9.148;2023-07-31T11:03:05;22.80;99.90
4828;DHT22;2428;48.732;9.148;2023-07-31T11:08:31;21.70;99.90
4828;DHT22;2428;48.732;9.148;2023-07-31T11:15:55;21.30;99.90
4828;DHT22;2428;48.732;9.148;2023-07-31T11:18:20;21.20;99.90
4828;DHT22;2428;48.732;9.148;2023-07-31T11:20:47;21.30;99.90
4828;DHT22;2428;48.732;9.148;2023-07-31T11:23:16;21.20;99.90
4828;DHT22;2428;48.732;9.148;2023-07-31T11:25:42;21.10;99.90
4828;DHT22;2428;48.732;9.148;2023-07-31T11:28:10;21.10;99.90
4828;DHT22;2428;48.732;9.148;2023-07-31T11:30:36;21.00;99.90
4828;DHT22;2428;48.732;9.148;2023-07-31T11:33:04;21.10;99.90
4828;DHT22;2428;48.732;9.148;2023-07-31T11:35:34;20.80;99.90
4828;DHT22;2428;48.732;9.148;2023-07-31T11:38:00;20.80;99.90
4828;DHT22;2428;48.732;9.148;2023-07-31T11:40:27;20.80;99.90
4828;DHT22;2428;48.732;9.148;2023-07-31T11:43:04;21.00;99.90
4828;DHT22;2428;48.732;9.148;2023-07-31T11:45:30;21.20;99.90
4828;DHT22;2428;48.732;9.148;2023-07-31T11:47:56;21.20;99.90
4828;DHT22;2428;48.732;9.148;2023-07-31T11:50:23;21.20;99.90
4828;DHT22;2428;48.732;9.148;2023-07-31T11:53:00;21.30;99.90
4828;DHT22;2428;48.732;9.148;2023-07-31T11:55:26;21.30;99.90
4828;DHT22;2428;48.732;9.148;2023-07-31T11:57:52;21.30;99.90
4828;DHT22;2428;48.732;9.148;2023-07-31T12:00:19;21.20;99.90
4828;DHT22;2428;48.732;9.148;2023-07-31T12:02:45;21.10;99.90
4828;DHT22;2428;48.732;9.148;2023-07-31T12:05:14;21.00;99.90
4828;DHT22;2428;48.732;9.148;2023-07-31T12:07:55;20.90;99.90
4828;DHT22;2428;48.732;9.148;2023-07-31T12:10:29;20.90;99.90
4828;DHT22;2428;48.732;9.148;2023-07-31T12:15:40;21.10;99.90
4828;DHT22;2428;48.732;9.148;2023-07-31T12:18:11;21.20;99.90
4828;DHT22;2428;48.732;9.148;2023-07-31T12:20:54;21.20;99.90
4828;DHT22;2428;48.732;9.148;2023-07-31T12:23:23;21.00;99.90
4828;DHT22;2428;48.732;9.148;2023-07-31T12:26:08;21.00;99.90
4828;DHT22;2428;48.732;9.148;2023-07-31T12:28:50;20.90;99.90
4828;DHT22;2428;48.732;9.148;2023-07-31T12:31:21;20.90;99.90
4828;DHT22;2428;48.732;9.148;2023-07-31T12:33:48;21.00;99.90
4828;DHT22;2428;48.732;9.148;2023-07-31T12:36:16;20.90;99.90
4828;DHT22;2428;48.732;9.148;2023-07-31T12:38:43;20.80;99.90
4828;DHT22;2428;48.732;9.148;2023-07-31T12:41:09;20.80;99.90
4828;DHT22;2428;48.732;9.148;2023-07-31T12:43:36;20.80;99.90
4828;DHT22;2428;48.732;9.148;2023-07-31T12:46:02;20.70;99.90
4828;DHT22;2428;48.732;9.148;2023-07-31T12:48:27;20.60;99.90
4828;DHT22;2428;48.732;9.148;2023-07-31T12:50:53;20.70;99.90
4828;DHT22;2428;48.732;9.148;2023-07-31T12:53:19;20.70;99.90
4828;DHT22;2428;48.732;9.148;2023-07-31T12:55:44;20.70;99.90
4828;DHT22;2428;48.732;9.148;2023-07-31T12:58:10;20.60;99.90
4828;DHT22;2428;48.732;9.148;2023-07-31T13:00:36;20.70;99.90
4828;DHT22;2428;48.732;9.148;2023-07-31T13:03:02;21.00;99.90
4828;DHT22;2428;48.732;9.148;2023-07-31T13:05:28;21.30;99.90
4828;DHT22;2428;48.732;9.148;2023-07-31T13:07:54;21.40;99.90
4828;DHT22;2428;48.732;9.148;2023-07-31T13:10:22;21.60;99.90
4828;DHT22;2428;48.732;9.148;2023-07-31T13:12:48;21.70;99.90
4828;DHT22;2428;48.732;9.148;2023-07-31T13:15:14;21.80;99.90
4828;DHT22;2428;48.732;9.148;2023-07-31T13:17:39;22.10;99.90
4828;DHT22;2428;48.732;9.148;2023-07-31T13:20:05;22.40;99.90
4828;DHT22;2428;48.732;9.148;2023-07-31T13:22:32;22.50;99.90
4828;DHT22;2428;48.732;9.148;2023-07-31T13:24:57;22.60;99.90
4828;DHT22;2428;48.732;9.148;2023-07-31T13:27:23;22.70;99.90
4828;DHT22;2428;48.732;9.148;2023-07-31T13:29:50;22.50;99.90
4828;DHT22;2428;48.732;9.148;2023-07-31T13:32:17;22.50;99.90
4828;DHT22;2428;48.732;9.148;2023-07-31T13:34:43;22.20;99.90
4828;DHT22;2428;48.732;9.148;2023-07-31T13:37:09;22.10;99.90
4828;DHT22;2428;48.732;9.148;2023-07-31T13:39:34;22.00;99.90
4828;DHT22;2428;48.732;9.148;2023-07-31T13:42:01;22.00;99.90
4828;DHT22;2428;48.732;9.148;2023-07-31T13:44:27;22.00;99.90
4828;DHT22;2428;48.732;9.148;2023-07-31T13:46:52;21.90;99.90
4828;DHT22;2428;48.732;9.148;2023-07-31T13:49:18;21.90;99.90
4828;DHT22;2428;48.732;9.148;2023-07-31T13:51:43;21.90;99.90
4828;DHT22;2428;48.732;9.148;2023-07-31T13:54:09;21.80;99.90
4828;DHT22;2428;48.732;9.148;2023-07-31T13:56:37;21.80;99.90
4828;DHT22;2428;48.732;9.148;2023-07-31T13:59:03;21.80;99.90
4828;DHT22;2428;48.732;9.148;2023-07-31T14:01:28;21.80;99.90
4828;DHT22;2428;48.732;9.148;2023-07-31T14:03:54;21.80;99.90
4828;DHT22;2428;48.732;9.148;2023-07-31T14:06:19;21.50;99.90
4828;DHT22;2428;48.732;9.148;2023-07-31T14:08:45;21.50;99.90
4828;DHT22;2428;48.732;9.148;2023-07-31T14:11:10;21.40;99.90
4828;DHT22;2428;48.732;9.148;2023-07-31T14:13:36;21.50;99.90
4828;DHT22;2428;48.732;9.148;2023-07-31T14:16:02;21.50;99.90
4828;DHT22;2428;48.732;9.148;2023-07-31T14:18:27;21.40;99.90
4828;DHT22;2428;48.732;9.148;2023-07-31T14:20:53;21.40;99.90
4828;DHT22;2428;48.732;9.148;2023-07-31T14:23:19;21.40;99.90
4828;DHT22;2428;48.732;9.148;2023-07-31T14:25:45;21.50;99.90
4828;DHT22;2428;48.732;9.148;2023-07-31T14:28:11;21.60;99.90
4828;DHT22;2428;48.732;9.148;2023-07-31T14:30:37;21.60;99.90
4828;DHT22;2428;48.732;9.148;2023-07-31T14:33:02;21.70;99.90
4828;DHT22;2428;48.732;9.148;2023-07-31T14:35:28;21.80;99.90
4828;DHT22;2428;48.732;9.148;2023-07-31T14:37:54;21.70;99.90
4828;DHT22;2428;48.732;9.148;2023-07-31T14:40:19;21.60;99.90
4828;DHT22;2428;48.732;9.148;2023-07-31T14:42:45;21.60;99.90
4828;DHT22;2428;48.732;9.148;2023-07-31T14:45:11;21.60;99.90
4828;DHT22;2428;48.732;9.148;2023-07-31T14:47:36;21.60;99.90
4828;DHT22;2428;48.732;9.148;2023-07-31T14:50:02;21.60;99.90
4828;DHT22;2428;48.732;9.148;2023-07-31T14:52:28;21.60;99.90
4828;DHT22;2428;48.732;9.148;2023-07-31T14:54:54;21.80;99.90
4828;DHT22;2428;48.732;9.148;2023-07-31T14:57:19;21.80;99.90
4828;DHT22;2428;48.732;9.148;2023-07-31T14:59:45;21.90;99.90
4828;DHT22;2428;48.732;9.148;2023-07-31T15:02:12;21.90;99.90
4828;DHT22;2428;48.732;9.148;2023-07-31T15:04:37;21.90;99.90
4828;DHT22;2428;48.732;9.148;2023-07-31T15:07:03;21.80;99.90
4828;DHT22;2428;48.732;9.148;2023-07-31T15:09:29;21.90;99.90
4828;DHT22;2428;48.732;9.148;2023-07-31T15:11:56;22.00;99.90
4828;DHT22;2428;48.732;9.148;2023-07-31T15:14:22;22.00;99.90
4828;DHT22;2428;48.732;9.148;2023-07-31T15:16:48;21.90;99.90
4828;DHT22;2428;48.732;9.148;2023-07-31T15:19:14;21.90;99.90
4828;DHT22;2428;48.732;9.148;2023-07-31T15:21:40;21.90;99.90
4828;DHT22;2428;48.732;9.148;2023-07-31T15:24:05;21.80;99.90
4828;DHT22;2428;48.732;9.148;2023-07-31T15:26:31;21.90;99.90
4828;DHT22;2428;48.732;9.148;2023-07-31T15:29:04;22.00;99.90
4828;DHT22;2428;48.732;9.148;2023-07-31T15:31:44;22.20;99.90
4828;DHT22;2428;48.732;9.148;2023-07-31T15:34:10;22.50;99.90
4828;DHT22;2428;48.732;9.148;2023-07-31T15:36:35;22.60;99.90
4828;DHT22;2428;48.732;9.148;2023-07-31T15:39:01;22.50;99.90
4828;DHT22;2428;48.732;9.148;2023-07-31T15:41:27;22.40;99.90
4828;DHT22;2428;48.732;9.148;2023-07-31T15:43:55;22.40;99.90
4828;DHT22;2428;48.732;9.148;2023-07-31T15:46:20;22.30;99.90
4828;DHT22;2428;48.732;9.148;2023-07-31T15:48:46;22.30;99.90
4828;DHT22;2428;48.732;9.148;2023-07-31T15:51:11;22.40;99.90
4828;DHT22;2428;48.732;9.148;2023-07-31T15:53:37;22.40;99.90
4828;DHT22;2428;48.732;9.148;2023-07-31T15:56:03;22.40;99.90
4828;DHT22;2428;48.732;9.148;2023-07-31T15:58:28;22.40;99.90
4828;DHT22;2428;48.732;9.148;2023-07-31T16:00:54;22.50;99.90
4828;DHT22;2428;48.732;9.148;2023-07-31T16:03:20;22.50;99.90
4828;DHT22;2428;48.732;9.148;2023-07-31T16:05:48;22.60;99.90
4828;DHT22;2428;48.732;9.148;2023-07-31T16:08:14;22.60;99.90
4828;DHT22;2428;48.732;9.148;2023-07-31T16:10:39;22.70;99.90
4828;DHT22;2428;48.732;9.148;2023-07-31T16:13:05;22.70;99.90
4828;DHT22;2428;48.732;9.148;2023-07-31T16:15:31;22.50;99.90
4828;DHT22;2428;48.732;9.148;2023-07-31T16:17:56;22.50;99.90